createdAt,value
2017-07-06T00:00:02.155Z,22.9
2017-07-06T00:00:28.289Z,22.84
2017-07-06T00:00:54.436Z,22.87
2017-07-06T00:01:20.582Z,22.78
2017-07-06T00:01:46.720Z,22.84
2017-07-06T00:02:12.855Z,22.88
2017-07-06T00:02:38.988Z,22.88
2017-07-06T00:03:05.137Z,22.84
2017-07-06T00:03:31.276Z,22.81
2017-07-06T00:03:57.452Z,22.76
2017-07-06T00:04:23.592Z,22.66
2017-07-06T00:04:49.741Z,22.65
2017-07-06T00:05:15.868Z,22.68
2017-07-06T00:05:42.014Z,22.65
2017-07-06T00:06:08.163Z,22.57
2017-07-06T00:06:34.291Z,22.47
2017-07-06T00:07:00.426Z,22.48
2017-07-06T00:07:26.576Z,22.5
2017-07-06T00:07:52.713Z,22.48
2017-07-06T00:08:18.855Z,22.53
2017-07-06T00:08:44.985Z,22.41
2017-07-06T00:09:11.124Z,22.45
2017-07-06T00:09:37.270Z,22.41
2017-07-06T00:10:03.403Z,22.53
2017-07-06T00:10:29.542Z,22.47
2017-07-06T00:10:55.686Z,22.44
2017-07-06T00:11:21.819Z,22.39
2017-07-06T00:11:47.950Z,22.43
2017-07-06T00:12:14.102Z,22.41
2017-07-06T00:12:40.239Z,22.45
2017-07-06T00:13:06.371Z,22.44
2017-07-06T00:13:32.520Z,22.43
2017-07-06T00:13:58.658Z,22.45
2017-07-06T00:14:24.804Z,22.43
2017-07-06T00:14:50.994Z,22.48
2017-07-06T00:15:17.122Z,22.45
2017-07-06T00:15:43.269Z,22.51
2017-07-06T00:16:09.411Z,22.51
2017-07-06T00:16:35.542Z,22.47
2017-07-06T00:17:01.693Z,22.55
2017-07-06T00:17:27.832Z,22.53
2017-07-06T00:17:53.964Z,22.53
2017-07-06T00:18:20.115Z,22.54
2017-07-06T00:18:46.280Z,22.47
2017-07-06T00:19:12.665Z,22.57
2017-07-06T00:19:38.801Z,22.51
2017-07-06T00:20:04.933Z,22.51
2017-07-06T00:20:31.078Z,22.39
2017-07-06T00:20:57.218Z,22.39
2017-07-06T00:21:23.352Z,22.43
2017-07-06T00:21:49.522Z,22.48
2017-07-06T00:22:15.667Z,22.44
2017-07-06T00:22:41.795Z,22.43
2017-07-06T00:23:07.933Z,22.32
2017-07-06T00:23:34.083Z,22.29
2017-07-06T00:24:00.212Z,22.18
2017-07-06T00:24:26.353Z,22.15
2017-07-06T00:24:52.500Z,22.13
2017-07-06T00:25:18.631Z,22.08
2017-07-06T00:25:44.765Z,22.17
2017-07-06T00:26:10.913Z,22.11
2017-07-06T00:26:37.050Z,22.15
2017-07-06T00:27:03.186Z,22.08
2017-07-06T00:27:29.329Z,22.02
2017-07-06T00:27:55.474Z,22.02
2017-07-06T00:28:21.623Z,22.04
2017-07-06T00:28:47.769Z,22.13
2017-07-06T00:29:13.914Z,22.06
2017-07-06T00:29:40.044Z,22.14
2017-07-06T00:30:06.185Z,22.11
2017-07-06T00:30:32.348Z,22.02
2017-07-06T00:30:58.491Z,22.02
2017-07-06T00:31:24.636Z,22
2017-07-06T00:31:50.763Z,22.07
2017-07-06T00:32:16.906Z,22.11
2017-07-06T00:32:43.051Z,22.13
2017-07-06T00:33:09.180Z,22.14
2017-07-06T00:33:35.318Z,22.11
2017-07-06T00:34:01.505Z,22.11
2017-07-06T00:34:27.595Z,22.04
2017-07-06T00:34:53.737Z,22.14
2017-07-06T00:35:19.883Z,22.17
2017-07-06T00:35:46.018Z,22.15
2017-07-06T00:36:12.161Z,22.14
2017-07-06T00:36:38.290Z,22.2
2017-07-06T00:37:04.431Z,22.13
2017-07-06T00:37:30.604Z,22.11
2017-07-06T00:37:56.738Z,22.11
2017-07-06T00:38:22.877Z,22.17
2017-07-06T00:38:49.023Z,22.14
2017-07-06T00:39:15.155Z,22.15
2017-07-06T00:39:41.289Z,22.15
2017-07-06T00:40:07.439Z,22.17
2017-07-06T00:40:33.576Z,22.13
2017-07-06T00:40:59.712Z,22.28
2017-07-06T00:41:25.860Z,22.2
2017-07-06T00:41:51.991Z,22.14
2017-07-06T00:42:18.139Z,22.17
2017-07-06T00:42:44.275Z,22.23
2017-07-06T00:43:10.407Z,22.17
2017-07-06T00:43:36.559Z,22.11
2017-07-06T00:44:02.695Z,22.11
2017-07-06T00:44:28.878Z,22.02
2017-07-06T00:44:55.024Z,21.98
2017-07-06T00:45:21.167Z,21.96
2017-07-06T00:45:47.295Z,21.75
2017-07-06T00:46:13.446Z,21.79
2017-07-06T00:46:39.593Z,21.8
2017-07-06T00:47:05.720Z,21.67
2017-07-06T00:47:31.859Z,21.75
2017-07-06T00:47:57.992Z,21.76
2017-07-06T00:48:24.140Z,21.76
2017-07-06T00:48:50.278Z,21.8
2017-07-06T00:49:16.411Z,21.8
2017-07-06T00:49:42.558Z,21.77
2017-07-06T00:50:08.704Z,21.79
2017-07-06T00:50:34.834Z,21.88
2017-07-06T00:51:00.973Z,21.93
2017-07-06T00:51:27.122Z,21.98
2017-07-06T00:51:53.249Z,21.83
2017-07-06T00:52:19.387Z,21.98
2017-07-06T00:52:45.526Z,21.99
2017-07-06T00:53:11.666Z,21.91
2017-07-06T00:53:37.811Z,21.93
2017-07-06T00:54:03.939Z,21.89
2017-07-06T00:54:30.080Z,21.98
2017-07-06T00:54:56.227Z,21.96
2017-07-06T00:55:22.358Z,21.95
2017-07-06T00:55:48.498Z,21.95
2017-07-06T00:56:14.644Z,21.99
2017-07-06T00:56:40.800Z,21.88
2017-07-06T00:57:06.931Z,21.95
2017-07-06T00:57:33.084Z,21.95
2017-07-06T00:57:59.224Z,21.93
2017-07-06T00:58:25.363Z,21.99
2017-07-06T00:58:51.499Z,22.04
2017-07-06T00:59:17.630Z,21.92
2017-07-06T00:59:43.776Z,21.98
2017-07-06T01:00:09.906Z,21.92
2017-07-06T01:00:36.053Z,21.98
2017-07-06T01:01:02.192Z,21.98
2017-07-06T01:01:28.330Z,22
2017-07-06T01:01:54.463Z,22
2017-07-06T01:02:20.610Z,22
2017-07-06T01:02:46.752Z,22.02
2017-07-06T01:03:12.884Z,21.99
2017-07-06T01:03:39.032Z,22.02
2017-07-06T01:04:05.160Z,21.98
2017-07-06T01:04:31.339Z,22.04
2017-07-06T01:04:57.474Z,22.04
2017-07-06T01:05:23.608Z,22.06
2017-07-06T01:05:49.755Z,22.06
2017-07-06T01:06:15.899Z,22
2017-07-06T01:06:42.028Z,21.99
2017-07-06T01:07:08.173Z,21.96
2017-07-06T01:07:34.316Z,21.95
2017-07-06T01:08:00.469Z,22.04
2017-07-06T01:08:26.608Z,21.95
2017-07-06T01:08:52.754Z,21.93
2017-07-06T01:09:18.886Z,21.93
2017-07-06T01:09:45.022Z,21.92
2017-07-06T01:10:11.552Z,21.91
2017-07-06T01:10:39.366Z,21.95
2017-07-06T01:11:05.748Z,22
2017-07-06T01:11:33.566Z,22.06
2017-07-06T01:12:00.440Z,21.98
2017-07-06T01:12:28.360Z,21.92
2017-07-06T01:12:56.438Z,21.92
2017-07-06T01:13:24.350Z,22
2017-07-06T01:13:50.408Z,21.93
2017-07-06T01:14:16.554Z,21.93
2017-07-06T01:14:42.697Z,22.02
2017-07-06T01:15:08.829Z,21.95
2017-07-06T01:15:34.965Z,22.07
2017-07-06T01:16:01.097Z,22.04
2017-07-06T01:16:27.264Z,22.08
2017-07-06T01:16:53.407Z,21.98
2017-07-06T01:17:19.536Z,22
2017-07-06T01:17:45.679Z,21.98
2017-07-06T01:18:11.830Z,21.92
2017-07-06T01:18:37.956Z,21.93
2017-07-06T01:19:04.097Z,21.88
2017-07-06T01:19:30.246Z,22
2017-07-06T01:19:56.396Z,21.93
2017-07-06T01:20:22.531Z,21.92
2017-07-06T01:20:48.692Z,21.93
2017-07-06T01:21:14.835Z,21.93
2017-07-06T01:21:40.984Z,21.96
2017-07-06T01:22:07.109Z,21.91
2017-07-06T01:22:33.250Z,21.85
2017-07-06T01:22:59.394Z,21.89
2017-07-06T01:23:25.524Z,21.79
2017-07-06T01:23:51.663Z,21.93
2017-07-06T01:24:17.810Z,21.88
2017-07-06T01:24:43.945Z,21.92
2017-07-06T01:25:10.075Z,21.98
2017-07-06T01:25:36.256Z,21.79
2017-07-06T01:26:02.389Z,21.83
2017-07-06T01:26:28.558Z,21.8
2017-07-06T01:26:54.687Z,21.76
2017-07-06T01:27:20.825Z,21.75
2017-07-06T01:27:46.976Z,21.83
2017-07-06T01:28:13.113Z,21.77
2017-07-06T01:28:39.245Z,21.83
2017-07-06T01:29:05.396Z,21.83
2017-07-06T01:29:31.530Z,21.82
2017-07-06T01:29:57.660Z,21.8
2017-07-06T01:30:23.808Z,21.79
2017-07-06T01:30:49.948Z,21.83
2017-07-06T01:31:16.079Z,21.83
2017-07-06T01:31:42.223Z,21.88
2017-07-06T01:32:08.355Z,21.82
2017-07-06T01:32:34.502Z,21.88
2017-07-06T01:33:00.666Z,21.83
2017-07-06T01:33:26.794Z,21.79
2017-07-06T01:33:52.941Z,21.77
2017-07-06T01:34:19.080Z,21.77
2017-07-06T01:34:45.212Z,21.91
2017-07-06T01:35:11.354Z,21.8
2017-07-06T01:35:37.501Z,21.8
2017-07-06T01:36:03.627Z,21.83
2017-07-06T01:36:29.770Z,21.91
2017-07-06T01:36:55.916Z,21.79
2017-07-06T01:37:22.043Z,21.8
2017-07-06T01:37:48.181Z,21.73
2017-07-06T01:38:14.312Z,21.7
2017-07-06T01:38:40.458Z,21.79
2017-07-06T01:39:06.625Z,21.75
2017-07-06T01:39:32.753Z,21.83
2017-07-06T01:39:58.893Z,21.79
2017-07-06T01:40:25.063Z,21.66
2017-07-06T01:40:51.193Z,21.73
2017-07-06T01:41:17.336Z,21.69
2017-07-06T01:41:43.478Z,21.62
2017-07-06T01:42:09.612Z,21.73
2017-07-06T01:42:35.742Z,21.73
2017-07-06T01:43:01.887Z,21.72
2017-07-06T01:43:28.024Z,21.72
2017-07-06T01:43:54.169Z,21.7
2017-07-06T01:44:20.306Z,21.61
2017-07-06T01:44:46.445Z,21.7
2017-07-06T01:45:12.638Z,21.6
2017-07-06T01:45:38.798Z,21.61
2017-07-06T01:46:04.930Z,21.69
2017-07-06T01:46:31.076Z,21.69
2017-07-06T01:46:57.219Z,21.64
2017-07-06T01:47:23.345Z,21.58
2017-07-06T01:47:49.493Z,21.6
2017-07-06T01:48:15.631Z,21.6
2017-07-06T01:48:41.773Z,21.64
2017-07-06T01:49:07.907Z,21.57
2017-07-06T01:49:34.040Z,21.55
2017-07-06T01:50:00.188Z,21.62
2017-07-06T01:50:26.328Z,21.66
2017-07-06T01:50:52.462Z,21.61
2017-07-06T01:51:18.606Z,21.62
2017-07-06T01:51:44.747Z,21.69
2017-07-06T01:52:10.878Z,21.55
2017-07-06T01:52:37.028Z,21.55
2017-07-06T01:53:03.172Z,21.6
2017-07-06T01:53:29.300Z,21.58
2017-07-06T01:53:55.438Z,21.55
2017-07-06T01:54:21.583Z,21.52
2017-07-06T01:54:47.713Z,21.54
2017-07-06T01:55:13.848Z,21.6
2017-07-06T01:55:39.996Z,21.57
2017-07-06T01:56:06.131Z,21.51
2017-07-06T01:56:32.264Z,21.61
2017-07-06T01:56:58.412Z,21.58
2017-07-06T01:57:24.550Z,21.62
2017-07-06T01:57:50.683Z,21.54
2017-07-06T01:58:16.829Z,21.6
2017-07-06T01:58:42.971Z,21.51
2017-07-06T01:59:09.103Z,21.57
2017-07-06T01:59:35.247Z,21.45
2017-07-06T02:00:01.375Z,21.48
2017-07-06T02:00:27.526Z,21.4
2017-07-06T02:00:53.660Z,21.45
2017-07-06T02:01:19.791Z,21.48
2017-07-06T02:01:45.936Z,21.5
2017-07-06T02:02:12.081Z,21.45
2017-07-06T02:02:38.230Z,21.42
2017-07-06T02:03:04.375Z,21.45
2017-07-06T02:03:30.522Z,21.46
2017-07-06T02:03:56.650Z,21.48
2017-07-06T02:04:22.788Z,21.46
2017-07-06T02:04:48.928Z,21.51
2017-07-06T02:05:15.059Z,21.52
2017-07-06T02:05:41.205Z,21.55
2017-07-06T02:06:07.334Z,21.48
2017-07-06T02:06:33.474Z,21.52
2017-07-06T02:06:59.623Z,21.45
2017-07-06T02:07:25.749Z,21.42
2017-07-06T02:07:51.892Z,21.5
2017-07-06T02:08:18.038Z,21.37
2017-07-06T02:08:44.169Z,21.42
2017-07-06T02:09:10.304Z,21.4
2017-07-06T02:09:36.456Z,21.42
2017-07-06T02:10:02.588Z,21.45
2017-07-06T02:10:28.719Z,21.5
2017-07-06T02:10:54.859Z,21.42
2017-07-06T02:11:21.002Z,21.48
2017-07-06T02:11:47.148Z,21.39
2017-07-06T02:12:13.278Z,21.43
2017-07-06T02:12:39.416Z,21.52
2017-07-06T02:13:05.562Z,21.43
2017-07-06T02:13:31.696Z,21.5
2017-07-06T02:13:57.825Z,21.51
2017-07-06T02:14:23.979Z,21.48
2017-07-06T02:14:50.115Z,21.48
2017-07-06T02:15:16.247Z,21.42
2017-07-06T02:15:42.391Z,21.4
2017-07-06T02:16:08.532Z,21.37
2017-07-06T02:16:34.671Z,21.42
2017-07-06T02:17:00.799Z,21.4
2017-07-06T02:17:26.932Z,21.39
2017-07-06T02:17:53.080Z,21.4
2017-07-06T02:18:19.218Z,21.37
2017-07-06T02:18:45.350Z,21.36
2017-07-06T02:19:11.495Z,21.33
2017-07-06T02:19:37.632Z,21.32
2017-07-06T02:20:03.766Z,21.29
2017-07-06T02:20:29.915Z,21.24
2017-07-06T02:20:56.062Z,21.33
2017-07-06T02:21:22.192Z,21.21
2017-07-06T02:21:48.333Z,21.22
2017-07-06T02:22:14.471Z,21.25
2017-07-06T02:22:40.612Z,21.24
2017-07-06T02:23:06.753Z,21.25
2017-07-06T02:23:32.884Z,21.3
2017-07-06T02:23:59.031Z,21.24
2017-07-06T02:24:25.175Z,21.25
2017-07-06T02:24:51.305Z,21.27
2017-07-06T02:25:17.443Z,21.29
2017-07-06T02:25:43.587Z,21.32
2017-07-06T02:26:09.720Z,21.3
2017-07-06T02:26:35.863Z,21.3
2017-07-06T02:27:02.008Z,21.27
2017-07-06T02:27:28.139Z,21.27
2017-07-06T02:27:54.286Z,21.27
2017-07-06T02:28:20.435Z,21.21
2017-07-06T02:28:46.574Z,21.27
2017-07-06T02:29:12.720Z,21.21
2017-07-06T02:29:38.853Z,21.25
2017-07-06T02:30:04.988Z,21.24
2017-07-06T02:30:31.136Z,21.22
2017-07-06T02:30:57.268Z,21.22
2017-07-06T02:31:23.399Z,21.25
2017-07-06T02:31:49.548Z,21.22
2017-07-06T02:32:15.688Z,21.21
2017-07-06T02:32:41.821Z,21.18
2017-07-06T02:33:07.964Z,21.21
2017-07-06T02:33:34.099Z,21.21
2017-07-06T02:34:00.249Z,21.15
2017-07-06T02:34:26.384Z,21.14
2017-07-06T02:34:52.514Z,21.07
2017-07-06T02:35:18.667Z,21.06
2017-07-06T02:35:44.805Z,21.12
2017-07-06T02:36:10.935Z,21.09
2017-07-06T02:36:37.081Z,21.12
2017-07-06T02:37:03.219Z,21.15
2017-07-06T02:37:29.349Z,21.17
2017-07-06T02:37:55.496Z,21.21
2017-07-06T02:38:21.639Z,21.18
2017-07-06T02:38:47.788Z,21.15
2017-07-06T02:39:13.970Z,21.21
2017-07-06T02:39:40.077Z,21.22
2017-07-06T02:40:06.208Z,21.2
2017-07-06T02:40:32.344Z,21.09
2017-07-06T02:40:58.492Z,21.17
2017-07-06T02:41:24.628Z,21.17
2017-07-06T02:41:50.760Z,21.12
2017-07-06T02:42:16.911Z,21.14
2017-07-06T02:42:43.046Z,21.11
2017-07-06T02:43:09.177Z,21.18
2017-07-06T02:43:35.374Z,21.09
2017-07-06T02:44:01.461Z,21.07
2017-07-06T02:44:27.600Z,21.21
2017-07-06T02:44:53.734Z,21.06
2017-07-06T02:45:19.862Z,21.12
2017-07-06T02:45:46.012Z,21.07
2017-07-06T02:46:12.147Z,21.11
2017-07-06T02:46:38.275Z,21.09
2017-07-06T02:47:04.419Z,21.11
2017-07-06T02:47:30.560Z,21.11
2017-07-06T02:47:56.689Z,21.11
2017-07-06T02:48:22.830Z,21.12
2017-07-06T02:48:48.978Z,21.14
2017-07-06T02:49:15.104Z,21.07
2017-07-06T02:49:41.247Z,21.11
2017-07-06T02:50:07.378Z,21.07
2017-07-06T02:50:33.547Z,21.12
2017-07-06T02:50:59.687Z,21.11
2017-07-06T02:51:25.817Z,21.02
2017-07-06T02:51:51.959Z,21.11
2017-07-06T02:52:18.107Z,21.06
2017-07-06T02:52:44.237Z,21.06
2017-07-06T02:53:10.394Z,21.05
2017-07-06T02:53:36.540Z,21.06
2017-07-06T02:54:02.670Z,21.06
2017-07-06T02:54:28.806Z,21.09
2017-07-06T02:54:54.957Z,21.09
2017-07-06T02:55:21.096Z,21.14
2017-07-06T02:55:47.237Z,21.15
2017-07-06T02:56:13.367Z,21.03
2017-07-06T02:56:39.505Z,21.09
2017-07-06T02:57:05.655Z,21.07
2017-07-06T02:57:31.783Z,21
2017-07-06T02:57:57.921Z,21.11
2017-07-06T02:58:24.066Z,21.12
2017-07-06T02:58:50.201Z,21.05
2017-07-06T02:59:16.329Z,21.05
2017-07-06T02:59:42.479Z,21.09
2017-07-06T03:00:08.614Z,21.03
2017-07-06T03:00:34.745Z,21.07
2017-07-06T03:01:00.892Z,21.09
2017-07-06T03:01:27.026Z,21.07
2017-07-06T03:01:53.173Z,21.02
2017-07-06T03:02:19.309Z,20.96
2017-07-06T03:02:46.713Z,20.95
2017-07-06T03:03:13.412Z,20.93
2017-07-06T03:03:39.546Z,21
2017-07-06T03:04:05.676Z,20.96
2017-07-06T03:04:31.821Z,20.96
2017-07-06T03:04:57.965Z,20.96
2017-07-06T03:05:24.093Z,20.96
2017-07-06T03:05:50.238Z,20.95
2017-07-06T03:06:16.382Z,20.97
2017-07-06T03:06:42.515Z,20.99
2017-07-06T03:07:08.649Z,20.95
2017-07-06T03:07:34.779Z,21.02
2017-07-06T03:08:00.926Z,20.95
2017-07-06T03:08:27.068Z,20.92
2017-07-06T03:08:53.198Z,20.93
2017-07-06T03:09:19.342Z,20.93
2017-07-06T03:09:45.493Z,20.87
2017-07-06T03:10:11.618Z,20.92
2017-07-06T03:10:37.759Z,20.97
2017-07-06T03:11:03.904Z,20.95
2017-07-06T03:11:30.036Z,20.87
2017-07-06T03:11:56.170Z,20.92
2017-07-06T03:12:22.307Z,20.93
2017-07-06T03:12:48.449Z,20.88
2017-07-06T03:13:14.596Z,20.81
2017-07-06T03:13:40.724Z,20.8
2017-07-06T03:14:06.867Z,20.77
2017-07-06T03:14:33.019Z,20.8
2017-07-06T03:14:59.143Z,20.81
2017-07-06T03:15:25.278Z,20.78
2017-07-06T03:15:51.427Z,20.72
2017-07-06T03:16:17.562Z,20.74
2017-07-06T03:16:43.693Z,20.74
2017-07-06T03:17:09.841Z,20.67
2017-07-06T03:17:35.979Z,20.74
2017-07-06T03:18:02.128Z,20.77
2017-07-06T03:18:28.257Z,20.69
2017-07-06T03:18:54.393Z,20.81
2017-07-06T03:19:20.538Z,20.67
2017-07-06T03:19:46.675Z,20.74
2017-07-06T03:20:12.803Z,20.67
2017-07-06T03:20:38.953Z,20.78
2017-07-06T03:21:05.087Z,20.74
2017-07-06T03:21:31.217Z,20.72
2017-07-06T03:21:57.360Z,20.78
2017-07-06T03:22:23.501Z,20.72
2017-07-06T03:22:49.629Z,20.7
2017-07-06T03:23:15.766Z,20.65
2017-07-06T03:23:41.914Z,20.67
2017-07-06T03:24:08.043Z,20.72
2017-07-06T03:24:34.183Z,20.63
2017-07-06T03:25:00.332Z,20.66
2017-07-06T03:25:26.463Z,20.66
2017-07-06T03:25:52.602Z,20.67
2017-07-06T03:26:18.745Z,20.69
2017-07-06T03:26:44.882Z,20.69
2017-07-06T03:27:11.006Z,20.7
2017-07-06T03:27:37.157Z,20.67
2017-07-06T03:28:03.294Z,20.67
2017-07-06T03:28:29.426Z,20.63
2017-07-06T03:28:55.575Z,20.65
2017-07-06T03:29:21.709Z,20.63
2017-07-06T03:29:47.852Z,20.7
2017-07-06T03:30:13.982Z,20.69
2017-07-06T03:30:40.111Z,20.67
2017-07-06T03:31:06.260Z,20.65
2017-07-06T03:31:32.400Z,20.67
2017-07-06T03:31:58.528Z,20.67
2017-07-06T03:32:24.677Z,20.69
2017-07-06T03:32:50.823Z,20.7
2017-07-06T03:33:16.956Z,20.66
2017-07-06T03:33:43.097Z,20.56
2017-07-06T03:34:09.246Z,20.59
2017-07-06T03:34:35.376Z,20.56
2017-07-06T03:35:01.514Z,20.56
2017-07-06T03:35:27.646Z,20.56
2017-07-06T03:35:53.793Z,20.59
2017-07-06T03:36:19.933Z,20.65
2017-07-06T03:36:46.065Z,20.63
2017-07-06T03:37:12.209Z,20.56
2017-07-06T03:37:38.354Z,20.69
2017-07-06T03:38:04.482Z,20.56
2017-07-06T03:38:30.647Z,20.65
2017-07-06T03:38:56.794Z,20.67
2017-07-06T03:39:22.921Z,20.69
2017-07-06T03:39:49.059Z,20.6
2017-07-06T03:40:15.194Z,20.7
2017-07-06T03:40:41.341Z,20.65
2017-07-06T03:41:07.485Z,20.66
2017-07-06T03:41:33.613Z,20.66
2017-07-06T03:41:59.751Z,20.65
2017-07-06T03:42:25.893Z,20.67
2017-07-06T03:42:52.027Z,20.65
2017-07-06T03:43:18.163Z,20.66
2017-07-06T03:43:44.309Z,20.66
2017-07-06T03:44:10.440Z,20.67
2017-07-06T03:44:36.572Z,20.67
2017-07-06T03:45:02.721Z,20.6
2017-07-06T03:45:28.884Z,20.66
2017-07-06T03:45:55.029Z,20.65
2017-07-06T03:46:21.161Z,20.55
2017-07-06T03:46:47.298Z,20.65
2017-07-06T03:47:13.442Z,20.65
2017-07-06T03:47:39.578Z,20.67
2017-07-06T03:48:05.706Z,20.7
2017-07-06T03:48:31.885Z,20.58
2017-07-06T03:48:58.020Z,20.69
2017-07-06T03:49:24.148Z,20.63
2017-07-06T03:49:50.295Z,20.58
2017-07-06T03:50:16.434Z,20.66
2017-07-06T03:50:42.564Z,20.65
2017-07-06T03:51:08.704Z,20.59
2017-07-06T03:51:34.837Z,20.63
2017-07-06T03:52:00.985Z,20.56
2017-07-06T03:52:27.150Z,20.58
2017-07-06T03:52:53.279Z,20.63
2017-07-06T03:53:19.426Z,20.7
2017-07-06T03:53:45.565Z,20.62
2017-07-06T03:54:11.697Z,20.66
2017-07-06T03:54:37.839Z,20.59
2017-07-06T03:55:03.989Z,20.67
2017-07-06T03:55:30.116Z,20.65
2017-07-06T03:55:56.255Z,20.65
2017-07-06T03:56:22.406Z,20.65
2017-07-06T03:56:48.535Z,20.58
2017-07-06T03:57:14.702Z,20.58
2017-07-06T03:57:40.835Z,20.65
2017-07-06T03:58:06.981Z,20.62
2017-07-06T03:58:33.130Z,20.58
2017-07-06T03:58:59.280Z,20.65
2017-07-06T03:59:25.419Z,20.56
2017-07-06T03:59:51.570Z,20.59
2017-07-06T04:00:17.697Z,20.66
2017-07-06T04:00:43.837Z,20.63
2017-07-06T04:01:09.981Z,20.72
2017-07-06T04:01:36.116Z,20.67
2017-07-06T04:02:02.244Z,20.66
2017-07-06T04:02:28.387Z,20.75
2017-07-06T04:02:54.525Z,20.78
2017-07-06T04:03:20.669Z,20.7
2017-07-06T04:03:46.802Z,20.7
2017-07-06T04:04:12.937Z,20.75
2017-07-06T04:04:39.080Z,20.7
2017-07-06T04:05:05.212Z,20.77
2017-07-06T04:05:31.342Z,20.75
2017-07-06T04:05:57.490Z,20.7
2017-07-06T04:06:23.630Z,20.72
2017-07-06T04:06:49.759Z,20.82
2017-07-06T04:07:15.909Z,20.74
2017-07-06T04:07:42.046Z,20.74
2017-07-06T04:08:08.182Z,20.78
2017-07-06T04:08:34.323Z,20.75
2017-07-06T04:09:00.468Z,20.75
2017-07-06T04:09:26.596Z,20.72
2017-07-06T04:09:52.734Z,20.72
2017-07-06T04:10:18.884Z,20.8
2017-07-06T04:10:45.012Z,20.85
2017-07-06T04:11:11.150Z,20.88
2017-07-06T04:11:37.293Z,20.92
2017-07-06T04:12:03.427Z,20.87
2017-07-06T04:12:29.560Z,20.88
2017-07-06T04:12:55.716Z,20.9
2017-07-06T04:13:21.854Z,20.88
2017-07-06T04:13:47.997Z,20.87
2017-07-06T04:14:14.132Z,20.92
2017-07-06T04:14:40.267Z,20.88
2017-07-06T04:15:06.415Z,20.93
2017-07-06T04:15:32.546Z,20.88
2017-07-06T04:15:58.693Z,20.88
2017-07-06T04:16:24.824Z,20.87
2017-07-06T04:16:50.964Z,20.92
2017-07-06T04:17:17.120Z,20.87
2017-07-06T04:17:43.266Z,20.92
2017-07-06T04:18:09.405Z,20.85
2017-07-06T04:18:35.539Z,20.85
2017-07-06T04:19:01.684Z,20.92
2017-07-06T04:19:27.815Z,20.93
2017-07-06T04:19:53.964Z,20.9
2017-07-06T04:20:20.100Z,20.92
2017-07-06T04:20:46.234Z,20.97
2017-07-06T04:21:12.378Z,20.96
2017-07-06T04:21:38.520Z,20.99
2017-07-06T04:22:04.651Z,20.92
2017-07-06T04:22:30.795Z,20.95
2017-07-06T04:22:56.939Z,20.93
2017-07-06T04:23:23.067Z,20.95
2017-07-06T04:23:49.206Z,20.87
2017-07-06T04:24:15.359Z,20.93
2017-07-06T04:24:41.484Z,20.99
2017-07-06T04:25:07.627Z,20.95
2017-07-06T04:25:33.758Z,20.93
2017-07-06T04:25:59.901Z,20.92
2017-07-06T04:26:26.049Z,21.03
2017-07-06T04:26:52.175Z,20.93
2017-07-06T04:27:18.316Z,20.88
2017-07-06T04:27:44.463Z,20.84
2017-07-06T04:28:10.594Z,20.85
2017-07-06T04:28:36.774Z,20.9
2017-07-06T04:29:02.919Z,20.85
2017-07-06T04:29:29.051Z,20.84
2017-07-06T04:29:55.186Z,20.82
2017-07-06T04:30:21.334Z,20.92
2017-07-06T04:30:47.473Z,20.78
2017-07-06T04:31:13.605Z,20.77
2017-07-06T04:31:39.752Z,20.67
2017-07-06T04:32:05.891Z,20.74
2017-07-06T04:32:32.024Z,20.78
2017-07-06T04:32:58.169Z,20.74
2017-07-06T04:33:24.314Z,20.8
2017-07-06T04:33:50.462Z,20.82
2017-07-06T04:34:16.602Z,20.77
2017-07-06T04:34:42.751Z,20.78
2017-07-06T04:35:08.881Z,20.8
2017-07-06T04:35:35.020Z,20.81
2017-07-06T04:36:01.154Z,20.75
2017-07-06T04:36:27.326Z,20.74
2017-07-06T04:36:53.471Z,20.72
2017-07-06T04:37:19.597Z,20.74
2017-07-06T04:37:45.733Z,20.77
2017-07-06T04:38:11.877Z,20.88
2017-07-06T04:38:38.011Z,20.82
2017-07-06T04:39:04.150Z,20.84
2017-07-06T04:39:30.298Z,20.8
2017-07-06T04:39:56.429Z,20.78
2017-07-06T04:40:22.560Z,20.82
2017-07-06T04:40:48.708Z,20.8
2017-07-06T04:41:14.847Z,20.92
2017-07-06T04:41:40.988Z,20.93
2017-07-06T04:42:07.121Z,20.85
2017-07-06T04:42:33.257Z,20.72
2017-07-06T04:42:59.406Z,20.74
2017-07-06T04:43:25.539Z,20.72
2017-07-06T04:43:51.668Z,20.8
2017-07-06T04:44:17.817Z,20.72
2017-07-06T04:44:43.956Z,20.82
2017-07-06T04:45:10.090Z,20.82
2017-07-06T04:45:36.236Z,20.84
2017-07-06T04:46:02.378Z,20.9
2017-07-06T04:46:28.512Z,20.92
2017-07-06T04:46:54.660Z,20.92
2017-07-06T04:47:20.786Z,21
2017-07-06T04:47:46.938Z,21.11
2017-07-06T04:48:13.099Z,21.12
2017-07-06T04:48:39.232Z,21.29
2017-07-06T04:49:05.383Z,21.55
2017-07-06T04:49:31.575Z,21.61
2017-07-06T04:49:57.657Z,21.69
2017-07-06T04:50:23.803Z,21.77
2017-07-06T04:50:49.948Z,21.93
2017-07-06T04:51:16.080Z,22.08
2017-07-06T04:51:42.217Z,22.2
2017-07-06T04:52:08.363Z,22.25
2017-07-06T04:52:34.497Z,22.44
2017-07-06T04:53:00.637Z,22.51
2017-07-06T04:53:26.787Z,22.59
2017-07-06T04:53:52.921Z,22.69
2017-07-06T04:54:19.050Z,22.87
2017-07-06T04:54:45.204Z,22.85
2017-07-06T04:55:11.341Z,23
2017-07-06T04:55:37.473Z,23.18
2017-07-06T04:56:03.619Z,23.32
2017-07-06T04:56:29.761Z,23.34
2017-07-06T04:56:55.890Z,23.5
2017-07-06T04:57:22.036Z,23.62
2017-07-06T04:57:48.182Z,23.74
2017-07-06T04:58:14.314Z,23.76
2017-07-06T04:58:40.450Z,23.92
2017-07-06T04:59:06.580Z,23.98
2017-07-06T04:59:32.730Z,24.05
2017-07-06T04:59:58.872Z,24.13
2017-07-06T05:00:25.002Z,24.2
2017-07-06T05:00:51.145Z,24.3
2017-07-06T05:01:17.296Z,24.42
2017-07-06T05:01:43.423Z,24.43
2017-07-06T05:02:09.568Z,24.47
2017-07-06T05:02:35.718Z,24.58
2017-07-06T05:03:01.849Z,24.66
2017-07-06T05:03:27.989Z,24.66
2017-07-06T05:03:54.129Z,24.65
2017-07-06T05:04:20.272Z,24.81
2017-07-06T05:04:46.423Z,24.86
2017-07-06T05:05:12.549Z,24.96
2017-07-06T05:05:38.692Z,25.06
2017-07-06T05:06:04.842Z,25.21
2017-07-06T05:06:30.972Z,25.33
2017-07-06T05:06:57.108Z,25.44
2017-07-06T05:07:23.256Z,25.46
2017-07-06T05:07:49.394Z,25.58
2017-07-06T05:08:15.526Z,25.62
2017-07-06T05:08:41.699Z,25.73
2017-07-06T05:09:07.834Z,25.72
2017-07-06T05:09:33.982Z,25.8
2017-07-06T05:10:00.112Z,25.83
2017-07-06T05:10:26.253Z,25.87
2017-07-06T05:10:52.399Z,25.96
2017-07-06T05:11:18.535Z,25.98
2017-07-06T05:11:44.665Z,25.91
2017-07-06T05:12:10.817Z,25.95
2017-07-06T05:12:36.976Z,25.87
2017-07-06T05:13:03.108Z,26.02
2017-07-06T05:13:29.256Z,25.98
2017-07-06T05:13:55.399Z,25.9
2017-07-06T05:14:21.529Z,25.83
2017-07-06T05:14:47.673Z,25.83
2017-07-06T05:15:13.804Z,25.83
2017-07-06T05:15:39.959Z,25.85
2017-07-06T05:16:06.097Z,25.72
2017-07-06T05:16:32.229Z,25.7
2017-07-06T05:16:58.403Z,25.62
2017-07-06T05:17:24.545Z,25.7
2017-07-06T05:17:50.674Z,25.63
2017-07-06T05:18:16.820Z,25.54
2017-07-06T05:18:42.967Z,25.58
2017-07-06T05:19:09.096Z,25.51
2017-07-06T05:19:35.237Z,25.46
2017-07-06T05:20:01.382Z,25.44
2017-07-06T05:20:27.514Z,25.48
2017-07-06T05:20:53.658Z,25.48
2017-07-06T05:21:19.790Z,25.28
2017-07-06T05:21:45.937Z,25.23
2017-07-06T05:22:12.108Z,25.18
2017-07-06T05:22:38.235Z,25.18
2017-07-06T05:23:04.376Z,25.1
2017-07-06T05:23:30.522Z,25.03
2017-07-06T05:23:56.655Z,24.98
2017-07-06T05:24:22.791Z,24.92
2017-07-06T05:24:48.941Z,25.01
2017-07-06T05:25:15.076Z,24.77
2017-07-06T05:25:41.210Z,24.66
2017-07-06T05:26:07.352Z,24.69
2017-07-06T05:26:33.496Z,24.63
2017-07-06T05:26:59.647Z,24.43
2017-07-06T05:27:25.778Z,24.51
2017-07-06T05:27:51.915Z,24.36
2017-07-06T05:28:18.066Z,24.38
2017-07-06T05:28:44.201Z,24.32
2017-07-06T05:29:10.330Z,24.23
2017-07-06T05:29:36.482Z,24.21
2017-07-06T05:30:02.618Z,24.21
2017-07-06T05:30:28.750Z,24.11
2017-07-06T05:30:54.895Z,24.11
2017-07-06T05:31:21.033Z,24.14
2017-07-06T05:31:47.198Z,23.99
2017-07-06T05:32:13.334Z,24.1
2017-07-06T05:32:39.464Z,23.92
2017-07-06T05:33:05.615Z,23.93
2017-07-06T05:33:31.758Z,23.87
2017-07-06T05:33:57.886Z,23.93
2017-07-06T05:34:24.037Z,23.86
2017-07-06T05:34:50.181Z,23.83
2017-07-06T05:35:16.310Z,23.77
2017-07-06T05:35:42.453Z,23.78
2017-07-06T05:36:08.605Z,23.78
2017-07-06T05:36:34.730Z,23.71
2017-07-06T05:37:00.874Z,23.69
2017-07-06T05:37:27.034Z,23.69
2017-07-06T05:37:53.163Z,23.65
2017-07-06T05:38:19.300Z,23.66